PWSweather.com
Personal Weather Stations
Station Observations
KCARIDGE3
Ridgecrest, CA 93555

Ridgecrest, CA 93555

Lat: 35.62083817, Lon: -117.6733017

Elevation: 2315

Station Type:

High Low Average
Temperature 85.8°F29.9°C 66.0°F18.9°C 75.2°F24.0°C
Dew Point 36.5°F2.5°C 18.9°F-7.3°C 30.6°F-0.8°C
Winds 21.0 mph 33.8 kmh 4.0 mph 6.4 kmh 12.0 mph SW19.3 kmh SW
Wind Gusts 28.0 mph45.1 kmh 2.0 mph3.2 kmh 12.0 mph19.3 kmh
Humidity 30% 9% 20%
Pressure -338605.1 mb -338605.1 mb -
Precipitation 0.00 in0.0 mm - -
Hour Temp Dew Point Humidity Winds Wind Gusts Pressure Precip Precip Rate Daily Precip Total
12:02 AM 70.0°F21.1°C 30.6°F-0.8°C 23% 8.1 mph SW13.0 kmh SW 10.1 mph16.3 kmh -338605.1 mb - 0.00 in0.0 mm 0.00 in0.0 mm
12:07 AM 69.8°F21.0°C 29.3°F-1.5°C 22% 8.1 mph SW13.0 kmh SW 14.1 mph22.7 kmh -338605.1 mb - 0.00 in0.0 mm 0.00 in0.0 mm
12:12 AM 69.8°F21.0°C 28.0°F-2.2°C 21% 8.9 mph SW14.3 kmh SW 12.1 mph19.5 kmh -338605.1 mb - 0.00 in0.0 mm 0.00 in0.0 mm
12:17 AM 70.0°F21.1°C 28.2°F-2.1°C 21% 10.1 mph WSW16.3 kmh WSW 11.0 mph17.7 kmh -338605.1 mb - 0.00 in0.0 mm 0.00 in0.0 mm
12:22 AM 70.2°F21.2°C 27.1°F-2.7°C 20% 11.0 mph SW17.7 kmh SW 12.1 mph19.5 kmh -338605.1 mb - 0.00 in0.0 mm 0.00 in0.0 mm
12:27 AM 70.3°F21.3°C 27.3°F-2.6°C 20% 12.1 mph SSW19.5 kmh SSW 6.9 mph11.1 kmh -338605.1 mb - 0.00 in0.0 mm 0.00 in0.0 mm
12:32 AM 70.5°F21.4°C 26.2°F-3.2°C 19% 10.1 mph SW16.3 kmh SW 10.1 mph16.3 kmh -338605.1 mb - 0.00 in0.0 mm 0.00 in0.0 mm
12:37 AM 70.3°F21.3°C 27.3°F-2.6°C 20% 8.1 mph SSW13.0 kmh SSW 8.1 mph13.0 kmh -338605.1 mb - 0.00 in0.0 mm 0.00 in0.0 mm
12:42 AM 70.3°F21.3°C 28.6°F-1.9°C 21% 6.9 mph SSW11.1 kmh SSW 4.9 mph7.9 kmh -338605.1 mb - 0.00 in0.0 mm 0.00 in0.0 mm
12:47 AM 70.2°F21.2°C 28.4°F-2.0°C 21% 6.0 mph SSW9.7 kmh SSW 8.1 mph13.0 kmh -338605.1 mb - 0.00 in0.0 mm 0.00 in0.0 mm
12:52 AM 70.0°F21.1°C 28.2°F-2.1°C 21% 6.0 mph SSW9.7 kmh SSW 8.1 mph13.0 kmh -338605.1 mb - 0.00 in0.0 mm 0.00 in0.0 mm
12:57 AM 69.6°F20.9°C 27.9°F-2.3°C 21% 6.0 mph SSW9.7 kmh SSW 8.9 mph14.3 kmh -338605.1 mb - 0.00 in0.0 mm 0.00 in0.0 mm
01:02 AM 69.6°F20.9°C 27.9°F-2.3°C 21% 6.9 mph SSW11.1 kmh SSW 6.9 mph11.1 kmh -338605.1 mb - 0.00 in0.0 mm 0.00 in0.0 mm
01:07 AM 70.0°F21.1°C 28.2°F-2.1°C 21% 8.1 mph SW13.0 kmh SW 4.9 mph7.9 kmh -338605.1 mb - 0.00 in0.0 mm 0.00 in0.0 mm
01:12 AM 70.0°F21.1°C 28.2°F-2.1°C 21% 8.9 mph SW14.3 kmh SW 10.1 mph16.3 kmh -338605.1 mb - 0.00 in0.0 mm 0.00 in0.0 mm
01:17 AM 70.0°F21.1°C 29.3°F-1.5°C 22% 10.1 mph SW16.3 kmh SW 11.0 mph17.7 kmh -338605.1 mb - 0.00 in0.0 mm 0.00 in0.0 mm
01:22 AM 70.0°F21.1°C 28.2°F-2.1°C 21% 10.1 mph SW16.3 kmh SW 13.0 mph20.9 kmh -338605.1 mb - 0.00 in0.0 mm 0.00 in0.0 mm
01:27 AM 70.0°F21.1°C 28.2°F-2.1°C 21% 10.1 mph SW16.3 kmh SW 8.9 mph14.3 kmh -338605.1 mb - 0.00 in0.0 mm 0.00 in0.0 mm
01:32 AM 70.0°F21.1°C 28.2°F-2.1°C 21% 10.1 mph SW16.3 kmh SW 14.1 mph22.7 kmh -338605.1 mb - 0.00 in0.0 mm 0.00 in0.0 mm
01:37 AM 69.8°F21.0°C 28.0°F-2.2°C 21% 11.0 mph WSW17.7 kmh WSW 12.1 mph19.5 kmh -338605.1 mb - 0.00 in0.0 mm 0.00 in0.0 mm
01:42 AM 70.0°F21.1°C 28.2°F-2.1°C 21% 11.0 mph SW17.7 kmh SW 15.0 mph24.1 kmh -338605.1 mb - 0.00 in0.0 mm 0.00 in0.0 mm
01:47 AM 69.6°F20.9°C 27.9°F-2.3°C 21% 11.0 mph SW17.7 kmh SW 11.0 mph17.7 kmh -338605.1 mb - 0.00 in0.0 mm 0.00 in0.0 mm
01:52 AM 69.4°F20.8°C 27.9°F-2.3°C 21% 12.1 mph SW19.5 kmh SW 11.0 mph17.7 kmh -338605.1 mb - 0.00 in0.0 mm 0.00 in0.0 mm
01:57 AM 69.3°F20.7°C 27.7°F-2.4°C 21% 10.1 mph SW16.3 kmh SW 6.9 mph11.1 kmh -338605.1 mb - 0.00 in0.0 mm 0.00 in0.0 mm
02:02 AM 68.9°F20.5°C 27.3°F-2.6°C 21% 10.1 mph WSW16.3 kmh WSW 11.0 mph17.7 kmh -338605.1 mb - 0.00 in0.0 mm 0.00 in0.0 mm
02:07 AM 68.7°F20.4°C 27.1°F-2.7°C 21% 10.1 mph WSW16.3 kmh WSW 10.1 mph16.3 kmh -338605.1 mb - 0.00 in0.0 mm 0.00 in0.0 mm
02:12 AM 68.4°F20.2°C 27.0°F-2.8°C 21% 8.9 mph SW14.3 kmh SW 11.0 mph17.7 kmh -338605.1 mb - 0.00 in0.0 mm 0.00 in0.0 mm
02:17 AM 68.2°F20.1°C 26.8°F-2.9°C 21% 10.1 mph SW16.3 kmh SW 12.1 mph19.5 kmh -338605.1 mb - 0.00 in0.0 mm 0.00 in0.0 mm
02:22 AM 68.0°F20.0°C 27.7°F-2.4°C 22% 11.0 mph SSW17.7 kmh SSW 8.1 mph13.0 kmh -338605.1 mb - 0.00 in0.0 mm 0.00 in0.0 mm
02:27 AM 67.8°F19.9°C 28.6°F-1.9°C 23% 11.0 mph SW17.7 kmh SW 12.1 mph19.5 kmh -338605.1 mb - 0.00 in0.0 mm 0.00 in0.0 mm
02:32 AM 67.8°F19.9°C 28.6°F-1.9°C 23% 11.0 mph SSW17.7 kmh SSW 4.9 mph7.9 kmh -338605.1 mb - 0.00 in0.0 mm 0.00 in0.0 mm
02:37 AM 68.0°F20.0°C 28.8°F-1.8°C 23% 10.1 mph SW16.3 kmh SW 6.9 mph11.1 kmh -338605.1 mb - 0.00 in0.0 mm 0.00 in0.0 mm
02:42 AM 68.0°F20.0°C 28.8°F-1.8°C 23% 8.9 mph SW14.3 kmh SW 15.0 mph24.1 kmh -338605.1 mb - 0.00 in0.0 mm 0.00 in0.0 mm
02:47 AM 67.8°F19.9°C 27.5°F-2.5°C 22% 8.9 mph SSW14.3 kmh SSW 10.1 mph16.3 kmh -338605.1 mb - 0.00 in0.0 mm 0.00 in0.0 mm
02:52 AM 68.0°F20.0°C 27.7°F-2.4°C 22% 8.9 mph SSW14.3 kmh SSW 6.0 mph9.7 kmh -338605.1 mb - 0.00 in0.0 mm 0.00 in0.0 mm
02:57 AM 68.0°F20.0°C 27.7°F-2.4°C 22% 8.1 mph SW13.0 kmh SW 8.1 mph13.0 kmh -338605.1 mb - 0.00 in0.0 mm 0.00 in0.0 mm
03:02 AM 68.2°F20.1°C 27.9°F-2.3°C 22% 8.1 mph SSW13.0 kmh SSW 10.1 mph16.3 kmh -338605.1 mb - 0.00 in0.0 mm 0.00 in0.0 mm
03:07 AM 68.4°F20.2°C 28.0°F-2.2°C 22% 10.1 mph SW16.3 kmh SW 17.9 mph28.8 kmh -338605.1 mb - 0.00 in0.0 mm 0.00 in0.0 mm
03:12 AM 68.4°F20.2°C 28.0°F-2.2°C 22% 11.0 mph SW17.7 kmh SW 10.1 mph16.3 kmh -338605.1 mb - 0.00 in0.0 mm 0.00 in0.0 mm
03:17 AM 68.4°F20.2°C 28.0°F-2.2°C 22% 10.1 mph SW16.3 kmh SW 12.1 mph19.5 kmh -338605.1 mb - 0.00 in0.0 mm 0.00 in0.0 mm
03:22 AM 68.2°F20.1°C 27.9°F-2.3°C 22% 10.1 mph SW16.3 kmh SW 12.1 mph19.5 kmh -338605.1 mb - 0.00 in0.0 mm 0.00 in0.0 mm
03:27 AM 68.2°F20.1°C 27.9°F-2.3°C 22% 10.1 mph SW16.3 kmh SW 6.0 mph9.7 kmh -338605.1 mb - 0.00 in0.0 mm 0.00 in0.0 mm
03:32 AM 68.2°F20.1°C 27.9°F-2.3°C 22% 8.9 mph SW14.3 kmh SW 10.1 mph16.3 kmh -338605.1 mb - 0.00 in0.0 mm 0.00 in0.0 mm
03:37 AM 68.0°F20.0°C 27.7°F-2.4°C 22% 8.1 mph SSW13.0 kmh SSW 6.0 mph9.7 kmh -338605.1 mb - 0.00 in0.0 mm 0.00 in0.0 mm
03:42 AM 67.8°F19.9°C 27.5°F-2.5°C 22% 8.1 mph SSW13.0 kmh SSW 6.9 mph11.1 kmh -338605.1 mb - 0.00 in0.0 mm 0.00 in0.0 mm
03:47 AM 67.8°F19.9°C 27.5°F-2.5°C 22% 6.9 mph S11.1 kmh S 11.0 mph17.7 kmh -338605.1 mb - 0.00 in0.0 mm 0.00 in0.0 mm
03:52 AM 67.8°F19.9°C 27.5°F-2.5°C 22% 8.1 mph S13.0 kmh S 6.0 mph9.7 kmh -338605.1 mb - 0.00 in0.0 mm 0.00 in0.0 mm
03:57 AM 67.8°F19.9°C 27.5°F-2.5°C 22% 8.9 mph SE14.3 kmh SE 8.9 mph14.3 kmh -338605.1 mb - 0.00 in0.0 mm 0.00 in0.0 mm
04:02 AM 67.6°F19.8°C 26.2°F-3.2°C 21% 8.1 mph S13.0 kmh S 10.1 mph16.3 kmh -338605.1 mb - 0.00 in0.0 mm 0.00 in0.0 mm
04:07 AM 67.5°F19.7°C 27.3°F-2.6°C 22% 6.9 mph SSW11.1 kmh SSW 6.9 mph11.1 kmh -338605.1 mb - 0.00 in0.0 mm 0.00 in0.0 mm
04:12 AM 67.5°F19.7°C 28.4°F-2.0°C 23% 6.0 mph S9.7 kmh S 12.1 mph19.5 kmh -338605.1 mb - 0.00 in0.0 mm 0.00 in0.0 mm
04:17 AM 67.6°F19.8°C 28.6°F-1.9°C 23% 6.9 mph S11.1 kmh S 8.1 mph13.0 kmh -338605.1 mb - 0.00 in0.0 mm 0.00 in0.0 mm
04:22 AM 67.6°F19.8°C 28.6°F-1.9°C 23% 8.9 mph SSW14.3 kmh SSW 10.1 mph16.3 kmh -338605.1 mb - 0.00 in0.0 mm 0.00 in0.0 mm
04:27 AM 67.8°F19.9°C 28.6°F-1.9°C 23% 10.1 mph SSW16.3 kmh SSW 6.0 mph9.7 kmh -338605.1 mb - 0.00 in0.0 mm 0.00 in0.0 mm
04:32 AM 67.8°F19.9°C 28.6°F-1.9°C 23% 8.9 mph S14.3 kmh S 10.1 mph16.3 kmh -338605.1 mb - 0.00 in0.0 mm 0.00 in0.0 mm
04:37 AM 67.8°F19.9°C 28.6°F-1.9°C 23% 8.9 mph SSW14.3 kmh SSW 12.1 mph19.5 kmh -338605.1 mb - 0.00 in0.0 mm 0.00 in0.0 mm
04:42 AM 67.8°F19.9°C 28.6°F-1.9°C 23% 8.9 mph SSW14.3 kmh SSW 4.9 mph7.9 kmh -338605.1 mb - 0.00 in0.0 mm 0.00 in0.0 mm
04:47 AM 67.8°F19.9°C 28.6°F-1.9°C 23% 8.9 mph SSW14.3 kmh SSW 10.1 mph16.3 kmh -338605.1 mb - 0.00 in0.0 mm 0.00 in0.0 mm
04:52 AM 67.6°F19.8°C 29.5°F-1.4°C 24% 10.1 mph SSW16.3 kmh SSW 8.1 mph13.0 kmh -338605.1 mb - 0.00 in0.0 mm 0.00 in0.0 mm
04:57 AM 67.5°F19.7°C 29.5°F-1.4°C 24% 10.1 mph SW16.3 kmh SW 10.1 mph16.3 kmh -338605.1 mb - 0.00 in0.0 mm 0.00 in0.0 mm
05:02 AM 67.5°F19.7°C 30.4°F-0.9°C 25% 8.9 mph SSW14.3 kmh SSW 6.9 mph11.1 kmh -338605.1 mb - 0.00 in0.0 mm 0.00 in0.0 mm
05:07 AM 67.3°F19.6°C 31.3°F-0.4°C 26% 8.9 mph SW14.3 kmh SW 11.0 mph17.7 kmh -338605.1 mb - 0.00 in0.0 mm 0.00 in0.0 mm
05:12 AM 67.3°F19.6°C 31.3°F-0.4°C 26% 10.1 mph SW16.3 kmh SW 16.1 mph25.9 kmh -338605.1 mb - 0.00 in0.0 mm 0.00 in0.0 mm
05:17 AM 67.3°F19.6°C 31.3°F-0.4°C 26% 10.1 mph SSW16.3 kmh SSW 8.9 mph14.3 kmh -338605.1 mb - 0.00 in0.0 mm 0.00 in0.0 mm
05:22 AM 67.1°F19.5°C 31.1°F-0.5°C 26% 8.9 mph SSW14.3 kmh SSW 10.1 mph16.3 kmh -338605.1 mb - 0.00 in0.0 mm 0.00 in0.0 mm
05:27 AM 66.9°F19.4°C 30.0°F-1.1°C 25% 8.9 mph SW14.3 kmh SW 14.1 mph22.7 kmh -338605.1 mb - 0.00 in0.0 mm 0.00 in0.0 mm
05:32 AM 66.7°F19.3°C 29.8°F-1.2°C 25% 8.9 mph SSW14.3 kmh SSW 8.1 mph13.0 kmh -338605.1 mb - 0.00 in0.0 mm 0.00 in0.0 mm
05:37 AM 66.6°F19.2°C 29.7°F-1.3°C 25% 8.1 mph SSW13.0 kmh SSW 6.0 mph9.7 kmh -338605.1 mb - 0.00 in0.0 mm 0.00 in0.0 mm
05:42 AM 66.4°F19.1°C 30.4°F-0.9°C 26% 6.9 mph SSW11.1 kmh SSW 4.0 mph6.4 kmh -338605.1 mb - 0.00 in0.0 mm 0.00 in0.0 mm
05:47 AM 66.4°F19.1°C 30.4°F-0.9°C 26% 6.0 mph S9.7 kmh S 11.0 mph17.7 kmh -338605.1 mb - 0.00 in0.0 mm 0.00 in0.0 mm
05:52 AM 66.4°F19.1°C 31.5°F-0.3°C 27% 6.0 mph S9.7 kmh S 6.0 mph9.7 kmh -338605.1 mb - 0.00 in0.0 mm 0.00 in0.0 mm
05:57 AM 66.4°F19.1°C 31.5°F-0.3°C 27% 4.9 mph SSW7.9 kmh SSW 4.9 mph7.9 kmh -338605.1 mb - 0.00 in0.0 mm 0.00 in0.0 mm
06:02 AM 66.4°F19.1°C 31.5°F-0.3°C 27% 4.0 mph S6.4 kmh S 6.0 mph9.7 kmh -338605.1 mb - 0.00 in0.0 mm 0.00 in0.0 mm
06:07 AM 66.4°F19.1°C 31.5°F-0.3°C 27% 4.9 mph SW7.9 kmh SW 8.1 mph13.0 kmh -338605.1 mb - 0.00 in0.0 mm 0.00 in0.0 mm
06:12 AM 66.4°F19.1°C 32.4°F0.2°C 28% 6.0 mph SW9.7 kmh SW 4.9 mph7.9 kmh -338605.1 mb - 0.00 in0.0 mm 0.00 in0.0 mm
06:17 AM 66.2°F19.0°C 32.2°F0.1°C 28% 6.9 mph SSW11.1 kmh SSW 12.1 mph19.5 kmh -338605.1 mb - 0.00 in0.0 mm 0.00 in0.0 mm
06:22 AM 66.0°F18.9°C 32.0°F0.0°C 28% 8.9 mph SSW14.3 kmh SSW 8.1 mph13.0 kmh -338605.1 mb - 0.00 in0.0 mm 0.00 in0.0 mm
06:27 AM 66.2°F19.0°C 32.2°F0.1°C 28% 8.9 mph SW14.3 kmh SW 6.9 mph11.1 kmh -338605.1 mb - 0.00 in0.0 mm 0.00 in0.0 mm
06:32 AM 66.2°F19.0°C 32.2°F0.1°C 28% 8.1 mph SSW13.0 kmh SSW 8.1 mph13.0 kmh -338605.1 mb - 0.00 in0.0 mm 0.00 in0.0 mm
06:37 AM 66.0°F18.9°C 32.0°F0.0°C 28% 6.9 mph SW11.1 kmh SW 6.9 mph11.1 kmh -338605.1 mb - 0.00 in0.0 mm 0.00 in0.0 mm
06:42 AM 66.0°F18.9°C 33.6°F0.9°C 30% 8.1 mph SW13.0 kmh SW 8.1 mph13.0 kmh -338605.1 mb - 0.00 in0.0 mm 0.00 in0.0 mm
06:47 AM 66.0°F18.9°C 33.6°F0.9°C 30% 10.1 mph SW16.3 kmh SW 13.0 mph20.9 kmh -338605.1 mb - 0.00 in0.0 mm 0.00 in0.0 mm
06:52 AM 66.4°F19.1°C 34.0°F1.1°C 30% 12.1 mph WSW19.5 kmh WSW 15.0 mph24.1 kmh -338605.1 mb - 0.00 in0.0 mm 0.00 in0.0 mm
06:57 AM 66.4°F19.1°C 34.0°F1.1°C 30% 13.0 mph WSW20.9 kmh WSW 8.9 mph14.3 kmh -338605.1 mb - 0.00 in0.0 mm 0.00 in0.0 mm
07:02 AM 66.7°F19.3°C 33.4°F0.8°C 29% 11.0 mph S17.7 kmh S 6.9 mph11.1 kmh -338605.1 mb - 0.00 in0.0 mm 0.00 in0.0 mm
07:07 AM 66.7°F19.3°C 32.5°F0.3°C 28% 8.1 mph SW13.0 kmh SW 2.9 mph4.7 kmh -338605.1 mb - 0.00 in0.0 mm 0.00 in0.0 mm
07:12 AM 66.7°F19.3°C 32.5°F0.3°C 28% 6.0 mph S9.7 kmh S 10.1 mph16.3 kmh -338605.1 mb - 0.00 in0.0 mm 0.00 in0.0 mm
07:17 AM 67.3°F19.6°C 34.0°F1.1°C 29% 6.9 mph SSW11.1 kmh SSW 6.0 mph9.7 kmh -338605.1 mb - 0.00 in0.0 mm 0.00 in0.0 mm
07:22 AM 67.8°F19.9°C 33.4°F0.8°C 28% 8.9 mph WSW14.3 kmh WSW 6.9 mph11.1 kmh -338605.1 mb - 0.00 in0.0 mm 0.00 in0.0 mm
07:27 AM 67.8°F19.9°C 34.3°F1.3°C 29% 11.0 mph WSW17.7 kmh WSW 12.1 mph19.5 kmh -338605.1 mb - 0.00 in0.0 mm 0.00 in0.0 mm
07:32 AM 68.2°F20.1°C 35.6°F2.0°C 30% 13.0 mph WSW20.9 kmh WSW 14.1 mph22.7 kmh -338605.1 mb - 0.00 in0.0 mm 0.00 in0.0 mm
07:37 AM 68.2°F20.1°C 33.8°F1.0°C 28% 12.1 mph SW19.5 kmh SW 6.9 mph11.1 kmh -338605.1 mb - 0.00 in0.0 mm 0.00 in0.0 mm
07:42 AM 67.8°F19.9°C 34.3°F1.3°C 29% 8.9 mph SSW14.3 kmh SSW 4.9 mph7.9 kmh -338605.1 mb - 0.00 in0.0 mm 0.00 in0.0 mm
07:47 AM 67.6°F19.8°C 34.2°F1.2°C 29% 6.9 mph SSW11.1 kmh SSW 6.9 mph11.1 kmh -338605.1 mb - 0.00 in0.0 mm 0.00 in0.0 mm
07:52 AM 67.6°F19.8°C 34.2°F1.2°C 29% 6.9 mph SSW11.1 kmh SSW 10.1 mph16.3 kmh -338605.1 mb - 0.00 in0.0 mm 0.00 in0.0 mm
07:57 AM 67.6°F19.8°C 34.2°F1.2°C 29% 8.1 mph S13.0 kmh S 8.1 mph13.0 kmh -338605.1 mb - 0.00 in0.0 mm 0.00 in0.0 mm
08:02 AM 67.6°F19.8°C 34.2°F1.2°C 29% 8.9 mph S14.3 kmh S 12.1 mph19.5 kmh -338605.1 mb - 0.00 in0.0 mm 0.00 in0.0 mm
08:07 AM 67.6°F19.8°C 35.1°F1.7°C 30% 10.1 mph S16.3 kmh S 8.9 mph14.3 kmh -338605.1 mb - 0.00 in0.0 mm 0.00 in0.0 mm
08:12 AM 67.6°F19.8°C 35.1°F1.7°C 30% 11.0 mph S17.7 kmh S 8.9 mph14.3 kmh -338605.1 mb - 0.00 in0.0 mm 0.00 in0.0 mm
08:17 AM 68.5°F20.3°C 35.1°F1.7°C 29% 12.1 mph S19.5 kmh S 16.1 mph25.9 kmh -338605.1 mb - 0.00 in0.0 mm 0.00 in0.0 mm
08:22 AM 69.3°F20.7°C 35.6°F2.0°C 29% 14.1 mph SSW22.7 kmh SSW 16.1 mph25.9 kmh -338605.1 mb - 0.00 in0.0 mm 0.00 in0.0 mm
08:27 AM 69.4°F20.8°C 35.8°F2.1°C 29% 13.0 mph SSW20.9 kmh SSW 17.9 mph28.8 kmh -338605.1 mb - 0.00 in0.0 mm 0.00 in0.0 mm
08:32 AM 69.6°F20.9°C 36.0°F2.2°C 29% 12.1 mph SSW19.5 kmh SSW 10.1 mph16.3 kmh -338605.1 mb - 0.00 in0.0 mm 0.00 in0.0 mm
08:37 AM 70.2°F21.2°C 36.5°F2.5°C 29% 11.0 mph SSW17.7 kmh SSW 11.0 mph17.7 kmh -338605.1 mb - 0.00 in0.0 mm 0.00 in0.0 mm
08:42 AM 70.7°F21.5°C 36.0°F2.2°C 28% 10.1 mph SW16.3 kmh SW 10.1 mph16.3 kmh -338605.1 mb - 0.00 in0.0 mm 0.00 in0.0 mm
08:47 AM 71.1°F21.7°C 35.4°F1.9°C 27% 10.1 mph SSW16.3 kmh SSW 10.1 mph16.3 kmh -338605.1 mb - 0.00 in0.0 mm 0.00 in0.0 mm
08:52 AM 71.8°F22.1°C 36.0°F2.2°C 27% 11.0 mph SW17.7 kmh SW 11.0 mph17.7 kmh -338605.1 mb - 0.00 in0.0 mm 0.00 in0.0 mm
08:57 AM 72.1°F22.3°C 35.4°F1.9°C 26% 11.0 mph WSW17.7 kmh WSW 15.0 mph24.1 kmh -338605.1 mb - 0.00 in0.0 mm 0.00 in0.0 mm
09:02 AM 72.5°F22.5°C 34.7°F1.5°C 25% 12.1 mph WSW19.5 kmh WSW 15.0 mph24.1 kmh -338605.1 mb - 0.00 in0.0 mm 0.00 in0.0 mm
09:07 AM 72.9°F22.7°C 35.1°F1.7°C 25% 12.1 mph WSW19.5 kmh WSW 11.0 mph17.7 kmh -338605.1 mb - 0.00 in0.0 mm 0.00 in0.0 mm
09:12 AM 73.0°F22.8°C 36.1°F2.3°C 26% 8.9 mph S14.3 kmh S 8.9 mph14.3 kmh -338605.1 mb - 0.00 in0.0 mm 0.00 in0.0 mm
09:17 AM 73.2°F22.9°C 36.3°F2.4°C 26% 8.1 mph S13.0 kmh S 8.1 mph13.0 kmh -338605.1 mb - 0.00 in0.0 mm 0.00 in0.0 mm
09:22 AM 73.2°F22.9°C 34.3°F1.3°C 24% 8.9 mph NW14.3 kmh NW 6.0 mph9.7 kmh -338605.1 mb - 0.00 in0.0 mm 0.00 in0.0 mm
09:27 AM 73.0°F22.8°C 33.1°F0.6°C 23% 6.9 mph NW11.1 kmh NW 6.9 mph11.1 kmh -338605.1 mb - 0.00 in0.0 mm 0.00 in0.0 mm
09:32 AM 73.0°F22.8°C 33.1°F0.6°C 23% 6.0 mph NW9.7 kmh NW 2.0 mph3.2 kmh -338605.1 mb - 0.00 in0.0 mm 0.00 in0.0 mm
09:37 AM 73.6°F23.1°C 33.4°F0.8°C 23% 4.0 mph S6.4 kmh S 6.0 mph9.7 kmh -338605.1 mb - 0.00 in0.0 mm 0.00 in0.0 mm
09:42 AM 74.3°F23.5°C 35.2°F1.8°C 24% 4.9 mph S7.9 kmh S 14.1 mph22.7 kmh -338605.1 mb - 0.00 in0.0 mm 0.00 in0.0 mm
09:47 AM 75.0°F23.9°C 35.8°F2.1°C 24% 8.9 mph SW14.3 kmh SW 13.0 mph20.9 kmh -338605.1 mb - 0.00 in0.0 mm 0.00 in0.0 mm
09:52 AM 75.6°F24.2°C 32.9°F0.5°C 21% 10.1 mph W16.3 kmh W 16.1 mph25.9 kmh -338605.1 mb - 0.00 in0.0 mm 0.00 in0.0 mm
09:57 AM 75.6°F24.2°C 31.6°F-0.2°C 20% 12.1 mph W19.5 kmh W 8.1 mph13.0 kmh -338605.1 mb - 0.00 in0.0 mm 0.00 in0.0 mm
10:02 AM 75.9°F24.4°C 33.3°F0.7°C 21% 11.0 mph WSW17.7 kmh WSW 4.9 mph7.9 kmh -338605.1 mb - 0.00 in0.0 mm 0.00 in0.0 mm
10:07 AM 76.5°F24.7°C 33.6°F0.9°C 21% 8.1 mph WSW13.0 kmh WSW 10.1 mph16.3 kmh -338605.1 mb - 0.00 in0.0 mm 0.00 in0.0 mm
10:12 AM 77.2°F25.1°C 34.2°F1.2°C 21% 6.0 mph S9.7 kmh S 6.9 mph11.1 kmh -338605.1 mb - 0.00 in0.0 mm 0.00 in0.0 mm
10:17 AM 77.9°F25.5°C 33.6°F0.9°C 20% 6.9 mph SSW11.1 kmh SSW 12.1 mph19.5 kmh -338605.1 mb - 0.00 in0.0 mm 0.00 in0.0 mm
10:22 AM 78.6°F25.9°C 31.6°F-0.2°C 18% 8.9 mph S14.3 kmh S 11.0 mph17.7 kmh -338605.1 mb - 0.00 in0.0 mm 0.00 in0.0 mm
10:27 AM 79.2°F26.2°C 32.0°F0.0°C 18% 10.1 mph SW16.3 kmh SW 17.0 mph27.4 kmh -338605.1 mb - 0.00 in0.0 mm 0.00 in0.0 mm
10:32 AM 79.2°F26.2°C 30.6°F-0.8°C 17% 12.1 mph WSW19.5 kmh WSW 13.0 mph20.9 kmh -338605.1 mb - 0.00 in0.0 mm 0.00 in0.0 mm
10:37 AM 79.0°F26.1°C 30.4°F-0.9°C 17% 15.0 mph W24.1 kmh W 11.0 mph17.7 kmh -338605.1 mb - 0.00 in0.0 mm 0.00 in0.0 mm
10:42 AM 78.8°F26.0°C 30.4°F-0.9°C 17% 13.0 mph W20.9 kmh W 10.1 mph16.3 kmh -338605.1 mb - 0.00 in0.0 mm 0.00 in0.0 mm
10:47 AM 78.8°F26.0°C 30.4°F-0.9°C 17% 10.1 mph NW16.3 kmh NW 8.9 mph14.3 kmh -338605.1 mb - 0.00 in0.0 mm 0.00 in0.0 mm
10:52 AM 79.2°F26.2°C 32.0°F0.0°C 18% 8.9 mph SSW14.3 kmh SSW 6.9 mph11.1 kmh -338605.1 mb - 0.00 in0.0 mm 0.00 in0.0 mm
10:57 AM 79.9°F26.6°C 31.1°F-0.5°C 17% 8.1 mph SW13.0 kmh SW 10.1 mph16.3 kmh -338605.1 mb - 0.00 in0.0 mm 0.00 in0.0 mm
11:02 AM 80.8°F27.1°C 31.8°F-0.1°C 17% 8.9 mph SW14.3 kmh SW 10.1 mph16.3 kmh -338605.1 mb - 0.00 in0.0 mm 0.00 in0.0 mm
11:07 AM 81.1°F27.3°C 32.2°F0.1°C 17% 8.9 mph W14.3 kmh W 4.9 mph7.9 kmh -338605.1 mb - 0.00 in0.0 mm 0.00 in0.0 mm
11:12 AM 81.5°F27.5°C 32.5°F0.3°C 17% 8.9 mph WSW14.3 kmh WSW 16.1 mph25.9 kmh -338605.1 mb - 0.00 in0.0 mm 0.00 in0.0 mm
11:17 AM 82.0°F27.8°C 29.8°F-1.2°C 15% 8.9 mph SW14.3 kmh SW 10.1 mph16.3 kmh -338605.1 mb - 0.00 in0.0 mm 0.00 in0.0 mm
11:22 AM 82.4°F28.0°C 30.2°F-1.0°C 15% 10.1 mph SW16.3 kmh SW 8.1 mph13.0 kmh -338605.1 mb - 0.00 in0.0 mm 0.00 in0.0 mm
11:27 AM 82.6°F28.1°C 30.2°F-1.0°C 15% 10.1 mph SW16.3 kmh SW 10.1 mph16.3 kmh -338605.1 mb - 0.00 in0.0 mm 0.00 in0.0 mm
11:32 AM 82.8°F28.2°C 30.4°F-0.9°C 15% 10.1 mph SSW16.3 kmh SSW 14.1 mph22.7 kmh -338605.1 mb - 0.00 in0.0 mm 0.00 in0.0 mm
11:37 AM 82.8°F28.2°C 30.4°F-0.9°C 15% 11.0 mph SW17.7 kmh SW 16.1 mph25.9 kmh -338605.1 mb - 0.00 in0.0 mm 0.00 in0.0 mm
11:42 AM 82.9°F28.3°C 28.8°F-1.8°C 14% 12.1 mph WSW19.5 kmh WSW 13.0 mph20.9 kmh -338605.1 mb - 0.00 in0.0 mm 0.00 in0.0 mm
11:47 AM 82.9°F28.3°C 30.6°F-0.8°C 15% 13.0 mph SW20.9 kmh SW 14.1 mph22.7 kmh -338605.1 mb - 0.00 in0.0 mm 0.00 in0.0 mm
11:52 AM 82.9°F28.3°C 28.8°F-1.8°C 14% 13.0 mph SW20.9 kmh SW 6.9 mph11.1 kmh -338605.1 mb - 0.00 in0.0 mm 0.00 in0.0 mm
11:57 AM 83.5°F28.6°C 27.5°F-2.5°C 13% 13.0 mph SW20.9 kmh SW 17.9 mph28.8 kmh -338605.1 mb - 0.00 in0.0 mm 0.00 in0.0 mm
12:02 PM 83.8°F28.8°C 27.7°F-2.4°C 13% 13.0 mph SW20.9 kmh SW 6.0 mph9.7 kmh -338605.1 mb - 0.00 in0.0 mm 0.00 in0.0 mm
12:07 PM 83.8°F28.8°C 27.7°F-2.4°C 13% 13.0 mph SW20.9 kmh SW 13.0 mph20.9 kmh -338605.1 mb - 0.00 in0.0 mm 0.00 in0.0 mm
12:12 PM 83.8°F28.8°C 29.5°F-1.4°C 14% 13.0 mph SW20.9 kmh SW 17.9 mph28.8 kmh -338605.1 mb - 0.00 in0.0 mm 0.00 in0.0 mm
12:17 PM 83.8°F28.8°C 29.5°F-1.4°C 14% 13.0 mph SW20.9 kmh SW 15.0 mph24.1 kmh -338605.1 mb - 0.00 in0.0 mm 0.00 in0.0 mm
12:22 PM 84.0°F28.9°C 29.7°F-1.3°C 14% 13.0 mph SSW20.9 kmh SSW 10.1 mph16.3 kmh -338605.1 mb - 0.00 in0.0 mm 0.00 in0.0 mm
12:27 PM 84.4°F29.1°C 28.2°F-2.1°C 13% 12.1 mph SW19.5 kmh SW 19.0 mph30.6 kmh -338605.1 mb - 0.00 in0.0 mm 0.00 in0.0 mm
12:32 PM 84.2°F29.0°C 28.0°F-2.2°C 13% 14.1 mph S22.7 kmh S 11.0 mph17.7 kmh -338605.1 mb - 0.00 in0.0 mm 0.00 in0.0 mm
12:37 PM 84.4°F29.1°C 30.0°F-1.1°C 14% 14.1 mph S22.7 kmh S 13.0 mph20.9 kmh -338605.1 mb - 0.00 in0.0 mm 0.00 in0.0 mm
12:42 PM 84.7°F29.3°C 30.2°F-1.0°C 14% 12.1 mph SSW19.5 kmh SSW 6.9 mph11.1 kmh -338605.1 mb - 0.00 in0.0 mm 0.00 in0.0 mm
12:47 PM 85.3°F29.6°C 30.7°F-0.7°C 14% 13.0 mph SSW20.9 kmh SSW 8.1 mph13.0 kmh -338605.1 mb - 0.00 in0.0 mm 0.00 in0.0 mm
12:52 PM 85.8°F29.9°C 29.3°F-1.5°C 13% 14.1 mph SSW22.7 kmh SSW 21.0 mph33.8 kmh -338605.1 mb - 0.00 in0.0 mm 0.00 in0.0 mm
12:57 PM 85.8°F29.9°C 31.1°F-0.5°C 14% 14.1 mph SSW22.7 kmh SSW 13.0 mph20.9 kmh -338605.1 mb - 0.00 in0.0 mm 0.00 in0.0 mm
01:02 PM 85.6°F29.8°C 30.9°F-0.6°C 14% 16.1 mph SW25.9 kmh SW 21.9 mph35.2 kmh -338605.1 mb - 0.00 in0.0 mm 0.00 in0.0 mm
01:07 PM 85.5°F29.7°C 30.9°F-0.6°C 14% 15.0 mph SW24.1 kmh SW 6.0 mph9.7 kmh -338605.1 mb - 0.00 in0.0 mm 0.00 in0.0 mm
01:12 PM 85.6°F29.8°C 30.9°F-0.6°C 14% 14.1 mph SW22.7 kmh SW 15.0 mph24.1 kmh -338605.1 mb - 0.00 in0.0 mm 0.00 in0.0 mm
01:17 PM 85.5°F29.7°C 30.9°F-0.6°C 14% 15.0 mph SW24.1 kmh SW 23.9 mph38.5 kmh -338605.1 mb - 0.00 in0.0 mm 0.00 in0.0 mm
01:22 PM 85.5°F29.7°C 30.9°F-0.6°C 14% 15.0 mph WSW24.1 kmh WSW 19.9 mph32.0 kmh -338605.1 mb - 0.00 in0.0 mm 0.00 in0.0 mm
01:27 PM 85.5°F29.7°C 32.5°F0.3°C 15% 14.1 mph SW22.7 kmh SW 17.0 mph27.4 kmh -338605.1 mb - 0.00 in0.0 mm 0.00 in0.0 mm
01:32 PM 85.6°F29.8°C 32.7°F0.4°C 15% 13.0 mph SW20.9 kmh SW 13.0 mph20.9 kmh -338605.1 mb - 0.00 in0.0 mm 0.00 in0.0 mm
01:37 PM 85.6°F29.8°C 30.9°F-0.6°C 14% 14.1 mph SW22.7 kmh SW 19.9 mph32.0 kmh -338605.1 mb - 0.00 in0.0 mm 0.00 in0.0 mm
01:42 PM 85.5°F29.7°C 30.9°F-0.6°C 14% 16.1 mph SW25.9 kmh SW 17.9 mph28.8 kmh -338605.1 mb - 0.00 in0.0 mm 0.00 in0.0 mm
01:47 PM 85.6°F29.8°C 30.9°F-0.6°C 14% 17.0 mph SW27.4 kmh SW 8.1 mph13.0 kmh -338605.1 mb - 0.00 in0.0 mm 0.00 in0.0 mm
01:52 PM 85.6°F29.8°C 30.9°F-0.6°C 14% 17.9 mph SW28.8 kmh SW 23.0 mph37.0 kmh -338605.1 mb - 0.00 in0.0 mm 0.00 in0.0 mm
01:57 PM 85.8°F29.9°C 31.1°F-0.5°C 14% 17.0 mph SW27.4 kmh SW 27.1 mph43.6 kmh -338605.1 mb - 0.00 in0.0 mm 0.00 in0.0 mm
02:02 PM 85.6°F29.8°C 30.9°F-0.6°C 14% 17.9 mph SW28.8 kmh SW 23.9 mph38.5 kmh -338605.1 mb - 0.00 in0.0 mm 0.00 in0.0 mm
02:07 PM 85.5°F29.7°C 30.9°F-0.6°C 14% 19.9 mph SW32.0 kmh SW 17.0 mph27.4 kmh -338605.1 mb - 0.00 in0.0 mm 0.00 in0.0 mm
02:12 PM 85.5°F29.7°C 30.9°F-0.6°C 14% 19.0 mph SSW30.6 kmh SSW 12.1 mph19.5 kmh -338605.1 mb - 0.00 in0.0 mm 0.00 in0.0 mm
02:17 PM 85.3°F29.6°C 30.7°F-0.7°C 14% 17.9 mph WSW28.8 kmh WSW 16.1 mph25.9 kmh -338605.1 mb - 0.00 in0.0 mm 0.00 in0.0 mm
02:22 PM 85.1°F29.5°C 30.6°F-0.8°C 14% 17.0 mph SW27.4 kmh SW 12.1 mph19.5 kmh -338605.1 mb - 0.00 in0.0 mm 0.00 in0.0 mm
02:27 PM 85.3°F29.6°C 28.9°F-1.7°C 13% 17.0 mph WSW27.4 kmh WSW 17.9 mph28.8 kmh -338605.1 mb - 0.00 in0.0 mm 0.00 in0.0 mm
02:32 PM 85.5°F29.7°C 28.9°F-1.7°C 13% 17.0 mph SW27.4 kmh SW 15.0 mph24.1 kmh -338605.1 mb - 0.00 in0.0 mm 0.00 in0.0 mm
02:37 PM 85.6°F29.8°C 30.9°F-0.6°C 14% 19.0 mph WSW30.6 kmh WSW 16.1 mph25.9 kmh -338605.1 mb - 0.00 in0.0 mm 0.00 in0.0 mm
02:42 PM 85.5°F29.7°C 32.5°F0.3°C 15% 19.9 mph WSW32.0 kmh WSW 17.9 mph28.8 kmh -338605.1 mb - 0.00 in0.0 mm 0.00 in0.0 mm
02:47 PM 85.5°F29.7°C 30.9°F-0.6°C 14% 19.0 mph WSW30.6 kmh WSW 23.9 mph38.5 kmh -338605.1 mb - 0.00 in0.0 mm 0.00 in0.0 mm
02:52 PM 85.3°F29.6°C 30.7°F-0.7°C 14% 17.9 mph WSW28.8 kmh WSW 19.9 mph32.0 kmh -338605.1 mb - 0.00 in0.0 mm 0.00 in0.0 mm
02:57 PM 85.5°F29.7°C 32.5°F0.3°C 15% 17.9 mph WSW28.8 kmh WSW 19.0 mph30.6 kmh -338605.1 mb - 0.00 in0.0 mm 0.00 in0.0 mm
03:02 PM 85.5°F29.7°C 32.5°F0.3°C 15% 17.0 mph WSW27.4 kmh WSW 19.0 mph30.6 kmh -338605.1 mb - 0.00 in0.0 mm 0.00 in0.0 mm
03:07 PM 85.3°F29.6°C 30.7°F-0.7°C 14% 19.0 mph SW30.6 kmh SW 21.0 mph33.8 kmh -338605.1 mb - 0.00 in0.0 mm 0.00 in0.0 mm
03:12 PM 84.9°F29.4°C 32.2°F0.1°C 15% 21.0 mph SW33.8 kmh SW 28.0 mph45.1 kmh -338605.1 mb - 0.00 in0.0 mm 0.00 in0.0 mm
03:17 PM 84.6°F29.2°C 31.8°F-0.1°C 15% 21.0 mph WSW33.8 kmh WSW 17.0 mph27.4 kmh -338605.1 mb - 0.00 in0.0 mm 0.00 in0.0 mm
03:22 PM 84.4°F29.1°C 31.6°F-0.2°C 15% 21.0 mph WSW33.8 kmh WSW 27.1 mph43.6 kmh -338605.1 mb - 0.00 in0.0 mm 0.00 in0.0 mm
03:27 PM 84.4°F29.1°C 31.6°F-0.2°C 15% 21.0 mph SW33.8 kmh SW 23.9 mph38.5 kmh -338605.1 mb - 0.00 in0.0 mm 0.00 in0.0 mm
03:32 PM 84.4°F29.1°C 31.6°F-0.2°C 15% 19.9 mph SW32.0 kmh SW 15.0 mph24.1 kmh -338605.1 mb - 0.00 in0.0 mm 0.00 in0.0 mm
03:37 PM 84.7°F29.3°C 32.0°F0.0°C 15% 19.0 mph SW30.6 kmh SW 21.0 mph33.8 kmh -338605.1 mb - 0.00 in0.0 mm 0.00 in0.0 mm
03:42 PM 84.9°F29.4°C 26.6°F-3.0°C 12% 17.9 mph WSW28.8 kmh WSW 16.1 mph25.9 kmh -338605.1 mb - 0.00 in0.0 mm 0.00 in0.0 mm
03:47 PM 85.3°F29.6°C 27.0°F-2.8°C 12% 16.1 mph WSW25.9 kmh WSW 6.0 mph9.7 kmh -338605.1 mb - 0.00 in0.0 mm 0.00 in0.0 mm
03:52 PM 85.5°F29.7°C 25.0°F-3.9°C 11% 15.0 mph W24.1 kmh W 14.1 mph22.7 kmh -338605.1 mb - 0.00 in0.0 mm 0.00 in0.0 mm
03:57 PM 85.5°F29.7°C 22.6°F-5.2°C 10% 17.0 mph WSW27.4 kmh WSW 23.0 mph37.0 kmh -338605.1 mb - 0.00 in0.0 mm 0.00 in0.0 mm
04:02 PM 85.3°F29.6°C 27.0°F-2.8°C 12% 19.0 mph W30.6 kmh W 17.0 mph27.4 kmh -338605.1 mb - 0.00 in0.0 mm 0.00 in0.0 mm
04:07 PM 84.7°F29.3°C 28.4°F-2.0°C 13% 17.9 mph WSW28.8 kmh WSW 19.0 mph30.6 kmh -338605.1 mb - 0.00 in0.0 mm 0.00 in0.0 mm
04:12 PM 84.6°F29.2°C 28.4°F-2.0°C 13% 17.9 mph SW28.8 kmh SW 27.1 mph43.6 kmh -338605.1 mb - 0.00 in0.0 mm 0.00 in0.0 mm
04:17 PM 84.4°F29.1°C 28.2°F-2.1°C 13% 17.9 mph SW28.8 kmh SW 10.1 mph16.3 kmh -338605.1 mb - 0.00 in0.0 mm 0.00 in0.0 mm
04:22 PM 84.0°F28.9°C 31.5°F-0.3°C 15% 17.0 mph WSW27.4 kmh WSW 12.1 mph19.5 kmh -338605.1 mb - 0.00 in0.0 mm 0.00 in0.0 mm
04:27 PM 83.5°F28.6°C 29.3°F-1.5°C 14% 16.1 mph S25.9 kmh S 15.0 mph24.1 kmh -338605.1 mb - 0.00 in0.0 mm 0.00 in0.0 mm
04:32 PM 83.5°F28.6°C 29.3°F-1.5°C 14% 15.0 mph W24.1 kmh W 11.0 mph17.7 kmh -338605.1 mb - 0.00 in0.0 mm 0.00 in0.0 mm
04:37 PM 83.7°F28.7°C 18.9°F-7.3°C 9% 14.1 mph WNW22.7 kmh WNW 17.0 mph27.4 kmh -338605.1 mb - 0.00 in0.0 mm 0.00 in0.0 mm
04:42 PM 83.8°F28.8°C 21.4°F-5.9°C 10% 12.1 mph W19.5 kmh W 16.1 mph25.9 kmh -338605.1 mb - 0.00 in0.0 mm 0.00 in0.0 mm
04:47 PM 84.0°F28.9°C 27.9°F-2.3°C 13% 11.0 mph SW17.7 kmh SW 23.0 mph37.0 kmh -338605.1 mb - 0.00 in0.0 mm 0.00 in0.0 mm
04:52 PM 83.5°F28.6°C 30.9°F-0.6°C 15% 14.1 mph SW22.7 kmh SW 4.9 mph7.9 kmh -338605.1 mb - 0.00 in0.0 mm 0.00 in0.0 mm
04:57 PM 82.8°F28.2°C 30.4°F-0.9°C 15% 17.9 mph SW28.8 kmh SW 16.1 mph25.9 kmh -338605.1 mb - 0.00 in0.0 mm 0.00 in0.0 mm
05:02 PM 82.2°F27.9°C 30.0°F-1.1°C 15% 17.0 mph SSW27.4 kmh SSW 6.9 mph11.1 kmh -338605.1 mb - 0.00 in0.0 mm 0.00 in0.0 mm
05:07 PM 81.9°F27.7°C 26.2°F-3.2°C 13% 13.0 mph WSW20.9 kmh WSW 12.1 mph19.5 kmh -338605.1 mb - 0.00 in0.0 mm 0.00 in0.0 mm
05:12 PM 81.9°F27.7°C 26.2°F-3.2°C 13% 14.1 mph W22.7 kmh W 21.0 mph33.8 kmh -338605.1 mb - 0.00 in0.0 mm 0.00 in0.0 mm
05:17 PM 81.1°F27.3°C 30.7°F-0.7°C 16% 16.1 mph SW25.9 kmh SW 17.9 mph28.8 kmh -338605.1 mb - 0.00 in0.0 mm 0.00 in0.0 mm
05:22 PM 81.0°F27.2°C 28.9°F-1.7°C 15% 16.1 mph SW25.9 kmh SW 21.0 mph33.8 kmh -338605.1 mb - 0.00 in0.0 mm 0.00 in0.0 mm
05:27 PM 80.2°F26.8°C 28.4°F-2.0°C 15% 16.1 mph W25.9 kmh W 11.0 mph17.7 kmh -338605.1 mb - 0.00 in0.0 mm 0.00 in0.0 mm
05:32 PM 79.9°F26.6°C 28.0°F-2.2°C 15% 13.0 mph SW20.9 kmh SW 8.9 mph14.3 kmh -338605.1 mb - 0.00 in0.0 mm 0.00 in0.0 mm
05:37 PM 79.7°F26.5°C 28.0°F-2.2°C 15% 12.1 mph WSW19.5 kmh WSW 17.0 mph27.4 kmh -338605.1 mb - 0.00 in0.0 mm 0.00 in0.0 mm
05:42 PM 79.3°F26.3°C 29.3°F-1.5°C 16% 16.1 mph WSW25.9 kmh WSW 17.9 mph28.8 kmh -338605.1 mb - 0.00 in0.0 mm 0.00 in0.0 mm
05:47 PM 79.3°F26.3°C 29.3°F-1.5°C 16% 17.9 mph SW28.8 kmh SW 21.9 mph35.2 kmh -338605.1 mb - 0.00 in0.0 mm 0.00 in0.0 mm
05:52 PM 79.0°F26.1°C 30.4°F-0.9°C 17% 17.0 mph SW27.4 kmh SW 21.0 mph33.8 kmh -338605.1 mb - 0.00 in0.0 mm 0.00 in0.0 mm
05:57 PM 78.6°F25.9°C 28.8°F-1.8°C 16% 17.0 mph SW27.4 kmh SW 15.0 mph24.1 kmh -338605.1 mb - 0.00 in0.0 mm 0.00 in0.0 mm
06:02 PM 78.3°F25.7°C 29.8°F-1.2°C 17% 17.0 mph WSW27.4 kmh WSW 14.1 mph22.7 kmh -338605.1 mb - 0.00 in0.0 mm 0.00 in0.0 mm
06:07 PM 77.5°F25.3°C 30.7°F-0.7°C 18% 17.9 mph WSW28.8 kmh WSW 27.1 mph43.6 kmh -338605.1 mb - 0.00 in0.0 mm 0.00 in0.0 mm
06:12 PM 77.0°F25.0°C 30.2°F-1.0°C 18% 17.9 mph SW28.8 kmh SW 8.9 mph14.3 kmh -338605.1 mb - 0.00 in0.0 mm 0.00 in0.0 mm
06:17 PM 76.6°F24.8°C 31.3°F-0.4°C 19% 16.1 mph S25.9 kmh S 8.9 mph14.3 kmh -338605.1 mb - 0.00 in0.0 mm 0.00 in0.0 mm
06:22 PM 76.3°F24.6°C 30.9°F-0.6°C 19% 14.1 mph SSW22.7 kmh SSW 8.9 mph14.3 kmh -338605.1 mb - 0.00 in0.0 mm 0.00 in0.0 mm
06:27 PM 75.9°F24.4°C 30.7°F-0.7°C 19% 13.0 mph SW20.9 kmh SW 17.9 mph28.8 kmh -338605.1 mb - 0.00 in0.0 mm 0.00 in0.0 mm
06:32 PM 75.6°F24.2°C 31.6°F-0.2°C 20% 15.0 mph WSW24.1 kmh WSW 14.1 mph22.7 kmh -338605.1 mb - 0.00 in0.0 mm 0.00 in0.0 mm
06:37 PM 75.0°F23.9°C 31.3°F-0.4°C 20% 17.0 mph SW27.4 kmh SW 17.9 mph28.8 kmh -338605.1 mb - 0.00 in0.0 mm 0.00 in0.0 mm
06:42 PM 74.8°F23.8°C 31.1°F-0.5°C 20% 16.1 mph SW25.9 kmh SW 10.1 mph16.3 kmh -338605.1 mb - 0.00 in0.0 mm 0.00 in0.0 mm
06:47 PM 74.5°F23.6°C 32.0°F0.0°C 21% 16.1 mph SW25.9 kmh SW 17.9 mph28.8 kmh -338605.1 mb - 0.00 in0.0 mm 0.00 in0.0 mm
06:52 PM 73.8°F23.2°C 31.5°F-0.3°C 21% 16.1 mph SSW25.9 kmh SSW 10.1 mph16.3 kmh -338605.1 mb - 0.00 in0.0 mm 0.00 in0.0 mm
06:57 PM 73.2°F22.9°C 30.9°F-0.6°C 21% 14.1 mph SW22.7 kmh SW 8.9 mph14.3 kmh -338605.1 mb - 0.00 in0.0 mm 0.00 in0.0 mm
07:02 PM 72.9°F22.7°C 30.6°F-0.8°C 21% 11.0 mph SW17.7 kmh SW 15.0 mph24.1 kmh -338605.1 mb - 0.00 in0.0 mm 0.00 in0.0 mm
07:07 PM 72.5°F22.5°C 30.4°F-0.9°C 21% 12.1 mph SW19.5 kmh SW 6.9 mph11.1 kmh -338605.1 mb - 0.00 in0.0 mm 0.00 in0.0 mm
07:12 PM 72.1°F22.3°C 30.0°F-1.1°C 21% 13.0 mph SW20.9 kmh SW 12.1 mph19.5 kmh -338605.1 mb - 0.00 in0.0 mm 0.00 in0.0 mm
07:17 PM 71.8°F22.1°C 30.9°F-0.6°C 22% 14.1 mph SW22.7 kmh SW 11.0 mph17.7 kmh -338605.1 mb - 0.00 in0.0 mm 0.00 in0.0 mm
07:22 PM 71.2°F21.8°C 30.4°F-0.9°C 22% 17.0 mph SW27.4 kmh SW 16.1 mph25.9 kmh -338605.1 mb - 0.00 in0.0 mm 0.00 in0.0 mm
07:27 PM 71.1°F21.7°C 29.1°F-1.6°C 21% 17.9 mph WSW28.8 kmh WSW 17.9 mph28.8 kmh -338605.1 mb - 0.00 in0.0 mm 0.00 in0.0 mm
07:32 PM 70.9°F21.6°C 30.2°F-1.0°C 22% 16.1 mph WSW25.9 kmh WSW 21.9 mph35.2 kmh -338605.1 mb - 0.00 in0.0 mm 0.00 in0.0 mm
07:37 PM 70.5°F21.4°C 29.8°F-1.2°C 22% 17.0 mph W27.4 kmh W 10.1 mph16.3 kmh -338605.1 mb - 0.00 in0.0 mm 0.00 in0.0 mm
07:42 PM 70.3°F21.3°C 29.7°F-1.3°C 22% 17.0 mph SW27.4 kmh SW 14.1 mph22.7 kmh -338605.1 mb - 0.00 in0.0 mm 0.00 in0.0 mm
07:47 PM 70.2°F21.2°C 29.5°F-1.4°C 22% 15.0 mph SSW24.1 kmh SSW 17.0 mph27.4 kmh -338605.1 mb - 0.00 in0.0 mm 0.00 in0.0 mm
07:52 PM 70.0°F21.1°C 29.3°F-1.5°C 22% 15.0 mph SSW24.1 kmh SSW 19.0 mph30.6 kmh -338605.1 mb - 0.00 in0.0 mm 0.00 in0.0 mm
07:57 PM 69.4°F20.8°C 30.0°F-1.1°C 23% 15.0 mph SSW24.1 kmh SSW 10.1 mph16.3 kmh -338605.1 mb - 0.00 in0.0 mm 0.00 in0.0 mm
08:02 PM 69.3°F20.7°C 28.8°F-1.8°C 22% 15.0 mph SW24.1 kmh SW 11.0 mph17.7 kmh -338605.1 mb - 0.00 in0.0 mm 0.00 in0.0 mm
08:07 PM 69.3°F20.7°C 28.8°F-1.8°C 22% 13.0 mph WSW20.9 kmh WSW 11.0 mph17.7 kmh -338605.1 mb - 0.00 in0.0 mm 0.00 in0.0 mm
08:12 PM 69.1°F20.6°C 28.6°F-1.9°C 22% 10.1 mph WSW16.3 kmh WSW 8.1 mph13.0 kmh -338605.1 mb - 0.00 in0.0 mm 0.00 in0.0 mm
08:17 PM 69.3°F20.7°C 28.8°F-1.8°C 22% 8.1 mph W13.0 kmh W 2.0 mph3.2 kmh -338605.1 mb - 0.00 in0.0 mm 0.00 in0.0 mm
08:22 PM 69.3°F20.7°C 28.8°F-1.8°C 22% 6.0 mph WNW9.7 kmh WNW 2.0 mph3.2 kmh -338605.1 mb - 0.00 in0.0 mm 0.00 in0.0 mm
08:27 PM 69.1°F20.6°C 28.6°F-1.9°C 22% 2.9 mph NE4.7 kmh NE 4.0 mph6.4 kmh -338605.1 mb - 0.00 in0.0 mm 0.00 in0.0 mm
08:32 PM 69.1°F20.6°C 29.7°F-1.3°C 23% 4.0 mph SE6.4 kmh SE 6.9 mph11.1 kmh -338605.1 mb - 0.00 in0.0 mm 0.00 in0.0 mm
08:37 PM 68.7°F20.4°C 28.4°F-2.0°C 22% 4.9 mph S7.9 kmh S 6.9 mph11.1 kmh -338605.1 mb - 0.00 in0.0 mm 0.00 in0.0 mm
08:42 PM 68.7°F20.4°C 28.4°F-2.0°C 22% 4.9 mph SSW7.9 kmh SSW 6.9 mph11.1 kmh -338605.1 mb - 0.00 in0.0 mm 0.00 in0.0 mm
08:47 PM 68.5°F20.3°C 29.3°F-1.5°C 23% 6.9 mph S11.1 kmh S 8.1 mph13.0 kmh -338605.1 mb - 0.00 in0.0 mm 0.00 in0.0 mm
08:52 PM 68.5°F20.3°C 29.3°F-1.5°C 23% 8.1 mph SW13.0 kmh SW 12.1 mph19.5 kmh -338605.1 mb - 0.00 in0.0 mm 0.00 in0.0 mm
08:57 PM 68.4°F20.2°C 30.2°F-1.0°C 24% 8.9 mph WSW14.3 kmh WSW 14.1 mph22.7 kmh -338605.1 mb - 0.00 in0.0 mm 0.00 in0.0 mm
09:02 PM 68.4°F20.2°C 30.2°F-1.0°C 24% 8.9 mph SW14.3 kmh SW 4.9 mph7.9 kmh -338605.1 mb - 0.00 in0.0 mm 0.00 in0.0 mm
09:07 PM 68.2°F20.1°C 30.0°F-1.1°C 24% 8.1 mph SSW13.0 kmh SSW 6.0 mph9.7 kmh -338605.1 mb - 0.00 in0.0 mm 0.00 in0.0 mm
09:12 PM 67.8°F19.9°C 30.7°F-0.7°C 25% 6.9 mph S11.1 kmh S 8.9 mph14.3 kmh -338605.1 mb - 0.00 in0.0 mm 0.00 in0.0 mm
09:17 PM 67.6°F19.8°C 30.6°F-0.8°C 25% 6.9 mph S11.1 kmh S 6.0 mph9.7 kmh -338605.1 mb - 0.00 in0.0 mm 0.00 in0.0 mm
09:22 PM 67.5°F19.7°C 31.5°F-0.3°C 26% 8.9 mph SSW14.3 kmh SSW 8.9 mph14.3 kmh -338605.1 mb - 0.00 in0.0 mm 0.00 in0.0 mm
09:27 PM 67.5°F19.7°C 30.4°F-0.9°C 25% 10.1 mph S16.3 kmh S 15.0 mph24.1 kmh -338605.1 mb - 0.00 in0.0 mm 0.00 in0.0 mm
09:32 PM 67.3°F19.6°C 31.3°F-0.4°C 26% 12.1 mph S19.5 kmh S 12.1 mph19.5 kmh -338605.1 mb - 0.00 in0.0 mm 0.00 in0.0 mm
09:37 PM 67.1°F19.5°C 30.0°F-1.1°C 25% 13.0 mph S20.9 kmh S 19.0 mph30.6 kmh -338605.1 mb - 0.00 in0.0 mm 0.00 in0.0 mm
09:42 PM 66.9°F19.4°C 30.9°F-0.6°C 26% 14.1 mph SSW22.7 kmh SSW 6.9 mph11.1 kmh -338605.1 mb - 0.00 in0.0 mm 0.00 in0.0 mm
09:47 PM 66.9°F19.4°C 30.0°F-1.1°C 25% 13.0 mph SSW20.9 kmh SSW 14.1 mph22.7 kmh -338605.1 mb - 0.00 in0.0 mm 0.00 in0.0 mm
09:52 PM 66.9°F19.4°C 30.0°F-1.1°C 25% 10.1 mph SSW16.3 kmh SSW 6.0 mph9.7 kmh -338605.1 mb - 0.00 in0.0 mm 0.00 in0.0 mm
09:57 PM 66.7°F19.3°C 29.8°F-1.2°C 25% 8.9 mph S14.3 kmh S 6.9 mph11.1 kmh -338605.1 mb - 0.00 in0.0 mm 0.00 in0.0 mm
10:02 PM 66.7°F19.3°C 29.8°F-1.2°C 25% 8.9 mph S14.3 kmh S 6.0 mph9.7 kmh -338605.1 mb - 0.00 in0.0 mm 0.00 in0.0 mm
10:07 PM 66.7°F19.3°C 28.8°F-1.8°C 24% 8.9 mph S14.3 kmh S 10.1 mph16.3 kmh -338605.1 mb - 0.00 in0.0 mm 0.00 in0.0 mm
10:12 PM 66.9°F19.4°C 28.9°F-1.7°C 24% 12.1 mph S19.5 kmh S 12.1 mph19.5 kmh -338605.1 mb - 0.00 in0.0 mm 0.00 in0.0 mm
10:17 PM 66.9°F19.4°C 28.9°F-1.7°C 24% 13.0 mph SSW20.9 kmh SSW 4.9 mph7.9 kmh -338605.1 mb - 0.00 in0.0 mm 0.00 in0.0 mm
10:22 PM 66.9°F19.4°C 28.9°F-1.7°C 24% 10.1 mph SW16.3 kmh SW 10.1 mph16.3 kmh -338605.1 mb - 0.00 in0.0 mm 0.00 in0.0 mm
10:27 PM 66.7°F19.3°C 27.7°F-2.4°C 23% 6.0 mph SW9.7 kmh SW 0.9 mph1.4 kmh -338605.1 mb - 0.00 in0.0 mm 0.00 in0.0 mm
10:32 PM 66.7°F19.3°C 27.7°F-2.4°C 23% 4.0 mph SSW6.4 kmh SSW 4.9 mph7.9 kmh -338605.1 mb - 0.00 in0.0 mm 0.00 in0.0 mm
10:37 PM 66.7°F19.3°C 26.6°F-3.0°C 22% 4.0 mph S6.4 kmh S 6.9 mph11.1 kmh -338605.1 mb - 0.00 in0.0 mm 0.00 in0.0 mm
10:42 PM 66.9°F19.4°C 27.9°F-2.3°C 23% 4.9 mph S7.9 kmh S 2.9 mph4.7 kmh -338605.1 mb - 0.00 in0.0 mm 0.00 in0.0 mm
10:47 PM 66.9°F19.4°C 26.8°F-2.9°C 22% 4.9 mph SW7.9 kmh SW 6.9 mph11.1 kmh -338605.1 mb - 0.00 in0.0 mm 0.00 in0.0 mm
10:52 PM 66.7°F19.3°C 27.7°F-2.4°C 23% 6.0 mph SE9.7 kmh SE 4.0 mph6.4 kmh -338605.1 mb - 0.00 in0.0 mm 0.00 in0.0 mm
10:57 PM 66.6°F19.2°C 28.6°F-1.9°C 24% 6.9 mph S11.1 kmh S 6.9 mph11.1 kmh -338605.1 mb - 0.00 in0.0 mm 0.00 in0.0 mm
11:02 PM 66.4°F19.1°C 27.5°F-2.5°C 23% 6.0 mph SW9.7 kmh SW 4.0 mph6.4 kmh -338605.1 mb - 0.00 in0.0 mm 0.00 in0.0 mm
11:07 PM 66.0°F18.9°C 27.1°F-2.7°C 23% 8.1 mph SSW13.0 kmh SSW 12.1 mph19.5 kmh -338605.1 mb - 0.00 in0.0 mm 0.00 in0.0 mm
11:12 PM 66.0°F18.9°C 28.2°F-2.1°C 24% 8.9 mph WSW14.3 kmh WSW 14.1 mph22.7 kmh -338605.1 mb - 0.00 in0.0 mm 0.00 in0.0 mm
11:17 PM 66.0°F18.9°C 27.1°F-2.7°C 23% 11.0 mph SW17.7 kmh SW 6.9 mph11.1 kmh -338605.1 mb - 0.00 in0.0 mm 0.00 in0.0 mm
11:22 PM 65.8°F18.8°C 27.0°F-2.8°C 23% 8.9 mph SSW14.3 kmh SSW 6.9 mph11.1 kmh -338605.1 mb - 0.00 in0.0 mm 0.00 in0.0 mm
11:27 PM 65.8°F18.8°C 27.0°F-2.8°C 23% 6.9 mph S11.1 kmh S 4.9 mph7.9 kmh -338605.1 mb - 0.00 in0.0 mm 0.00 in0.0 mm
11:32 PM 65.8°F18.8°C 25.9°F-3.4°C 22% 4.9 mph SW7.9 kmh SW 2.0 mph3.2 kmh -338605.1 mb - 0.00 in0.0 mm 0.00 in0.0 mm
11:37 PM 65.7°F18.7°C 26.8°F-2.9°C 23% 2.9 mph WSW4.7 kmh WSW 0.9 mph1.4 kmh -338605.1 mb - 0.00 in0.0 mm 0.00 in0.0 mm
11:42 PM 65.5°F18.6°C 25.7°F-3.5°C 22% 2.0 mph WSW3.2 kmh WSW 2.9 mph4.7 kmh -338605.1 mb - 0.00 in0.0 mm 0.00 in0.0 mm
11:47 PM 65.5°F18.6°C 25.7°F-3.5°C 22% 4.0 mph SSW6.4 kmh SSW 8.1 mph13.0 kmh -338605.1 mb - 0.00 in0.0 mm 0.00 in0.0 mm
11:52 PM 65.5°F18.6°C 25.7°F-3.5°C 22% 6.0 mph W9.7 kmh W 6.0 mph9.7 kmh -338605.1 mb - 0.00 in0.0 mm 0.00 in0.0 mm
11:57 PM 65.5°F18.6°C 25.7°F-3.5°C 22% 6.0 mph SSW9.7 kmh SSW 6.9 mph11.1 kmh -338605.1 mb - 0.00 in0.0 mm 0.00 in0.0 mm